createdAt,value
2022-09-26T00:02:17.991Z,8.66
2022-09-26T00:07:22.217Z,8.77
2022-09-26T00:12:25.673Z,8.78
2022-09-26T00:17:31.168Z,8.82
2022-09-26T00:22:34.478Z,8.77
2022-09-26T00:27:38.514Z,8.77
2022-09-26T00:32:43.255Z,8.73
2022-09-26T00:37:47.343Z,8.72
2022-09-26T00:42:50.677Z,8.77
2022-09-26T00:48:00.440Z,8.82
2022-09-26T00:53:10.934Z,8.82
2022-09-26T00:58:18.720Z,8.79
2022-09-26T01:03:25.420Z,8.79
2022-09-26T01:08:34.110Z,8.72
2022-09-26T01:13:39.255Z,8.72
2022-09-26T01:18:46.087Z,8.78
2022-09-26T01:24:08.698Z,8.86
2022-09-26T01:29:33.347Z,8.69
2022-09-26T01:34:46.464Z,8.74
2022-09-26T01:40:03.363Z,8.69
2022-09-26T01:45:14.835Z,8.71
2022-09-26T01:50:29.382Z,8.67
2022-09-26T01:55:39.157Z,8.69
2022-09-26T02:00:46.232Z,8.76
2022-09-26T02:05:57.400Z,8.81
2022-09-26T02:11:07.071Z,8.89
2022-09-26T02:16:16.240Z,8.92
2022-09-26T02:21:24.475Z,8.97
2022-09-26T02:26:30.824Z,8.90
2022-09-26T02:31:38.738Z,8.86
2022-09-26T02:36:44.960Z,8.74
2022-09-26T02:41:52.597Z,8.79
2022-09-26T02:47:21.973Z,8.76
2022-09-26T02:52:45.035Z,8.75
2022-09-26T02:58:06.653Z,8.61
2022-09-26T03:03:19.534Z,8.60
2022-09-26T03:08:28.010Z,8.70
2022-09-26T03:13:37.055Z,8.71
2022-09-26T03:18:47.264Z,8.73
2022-09-26T03:23:52.500Z,8.80
2022-09-26T03:28:57.683Z,8.80
2022-09-26T03:34:01.090Z,8.81
2022-09-26T03:39:06.881Z,8.88
2022-09-26T03:44:10.279Z,8.86
2022-09-26T03:49:14.471Z,8.90
2022-09-26T03:54:19.312Z,8.95
2022-09-26T03:59:23.388Z,8.96
2022-09-26T04:04:26.889Z,8.92
2022-09-26T04:09:32.689Z,8.98
2022-09-26T04:14:36.640Z,9.03
2022-09-26T04:19:41.243Z,9.11
2022-09-26T04:24:45.989Z,9.13
2022-09-26T04:29:50.106Z,9.17
2022-09-26T04:34:53.430Z,9.22
2022-09-26T04:39:58.839Z,9.13
2022-09-26T04:45:02.135Z,9.26
2022-09-26T04:50:08.359Z,9.27
2022-09-26T04:55:13.105Z,9.31
2022-09-26T05:00:25.681Z,9.37
2022-09-26T05:05:33.976Z,9.40
2022-09-26T05:10:39.404Z,9.44
2022-09-26T05:15:43.722Z,9.39
2022-09-26T05:20:49.105Z,9.49
2022-09-26T05:26:11.853Z,9.59
2022-09-26T05:31:16.468Z,9.67
2022-09-26T05:36:21.112Z,9.73
2022-09-26T05:41:29.857Z,9.89
2022-09-26T05:46:35.614Z,9.95
2022-09-26T05:51:42.182Z,10.20
2022-09-26T05:56:47.626Z,10.35
2022-09-26T06:01:51.756Z,10.55
2022-09-26T06:06:55.810Z,10.61
2022-09-26T06:12:01.404Z,10.68
2022-09-26T06:17:05.429Z,10.79
2022-09-26T06:22:09.436Z,10.79
2022-09-26T06:27:14.886Z,11.03
2022-09-26T06:32:18.267Z,11.12
2022-09-26T06:37:22.619Z,11.34
2022-09-26T06:42:27.655Z,11.49
2022-09-26T06:47:31.715Z,11.70
2022-09-26T06:52:35.917Z,11.84
2022-09-26T06:57:42.488Z,11.99
2022-09-26T07:02:53.243Z,11.95
2022-09-26T07:07:58.648Z,12.00
2022-09-26T07:13:05.392Z,12.01
2022-09-26T07:18:09.485Z,12.13
2022-09-26T07:23:13.212Z,12.47
2022-09-26T07:28:18.839Z,12.75
2022-09-26T07:33:22.229Z,12.80
2022-09-26T07:38:26.690Z,13.10
2022-09-26T07:44:18.931Z,12.90
2022-09-26T07:49:13.249Z,12.93
2022-09-26T07:54:18.112Z,13.14
2022-09-26T07:59:24.128Z,13.09
2022-09-26T08:04:27.550Z,13.45
2022-09-26T08:09:31.531Z,13.50
2022-09-26T08:14:36.611Z,13.70
2022-09-26T08:19:40.684Z,13.70
2022-09-26T08:24:51.000Z,13.95
2022-09-26T08:29:57.571Z,14.11
2022-09-26T08:35:01.167Z,13.75
2022-09-26T08:40:05.774Z,13.68
2022-09-26T08:45:49.209Z,13.71
2022-09-26T08:51:00.155Z,14.09
2022-09-26T08:56:07.719Z,14.42
2022-09-26T09:01:25.620Z,14.82
2022-09-26T09:06:30.642Z,14.60
2022-09-26T09:11:56.954Z,14.85
2022-09-26T09:17:14.662Z,15.17
2022-09-26T09:22:33.444Z,15.60
2022-09-26T09:27:54.445Z,15.40
2022-09-26T09:33:04.973Z,14.88
2022-09-26T09:38:12.286Z,15.08
2022-09-26T09:43:26.165Z,15.57
2022-09-26T09:48:31.761Z,15.81
2022-09-26T09:53:50.982Z,15.29
2022-09-26T09:59:07.154Z,14.81
2022-09-26T10:04:31.446Z,14.22
2022-09-26T10:09:41.080Z,14.68
2022-09-26T10:14:50.635Z,15.11
2022-09-26T10:19:56.314Z,15.25
2022-09-26T10:25:06.260Z,14.90
2022-09-26T10:30:26.946Z,14.73
2022-09-26T10:35:43.306Z,14.54
2022-09-26T10:40:55.613Z,14.59
2022-09-26T10:46:10.985Z,14.43
2022-09-26T10:51:29.926Z,14.76
2022-09-26T10:56:40.696Z,14.75
2022-09-26T11:01:47.653Z,14.59
2022-09-26T11:06:53.500Z,14.39
2022-09-26T11:11:57.639Z,14.29
2022-09-26T11:17:03.413Z,14.19
2022-09-26T11:22:15.966Z,14.08
2022-09-26T11:27:33.579Z,13.94
2022-09-26T11:32:41.223Z,13.88
2022-09-26T11:38:12.197Z,13.65
2022-09-26T11:43:30.552Z,13.65
2022-09-26T11:48:51.304Z,13.62
2022-09-26T11:54:20.358Z,13.61
2022-09-26T11:59:41.633Z,13.33
2022-09-26T12:05:02.173Z,13.26
2022-09-26T12:10:27.720Z,13.24
2022-09-26T12:15:39.604Z,13.05
2022-09-26T12:21:04.938Z,12.71
2022-09-26T12:26:19.258Z,12.83
2022-09-26T12:31:36.988Z,12.94
2022-09-26T12:36:56.462Z,13.12
2022-09-26T12:42:15.741Z,13.17
2022-09-26T12:47:35.965Z,13.15
2022-09-26T12:53:10.299Z,13.24
2022-09-26T12:58:31.877Z,13.19
2022-09-26T13:04:02.669Z,13.39
2022-09-26T13:09:20.994Z,13.43
2022-09-26T13:14:42.527Z,13.24
2022-09-26T13:19:54.382Z,13.12
2022-09-26T13:25:04.154Z,12.84
2022-09-26T13:30:17.910Z,12.77
2022-09-26T13:35:24.841Z,12.41
2022-09-26T13:40:38.954Z,12.18
2022-09-26T13:46:01.619Z,12.06
2022-09-26T13:51:20.134Z,11.93
2022-09-26T13:56:48.727Z,11.82
2022-09-26T14:02:22.018Z,11.82
2022-09-26T14:08:05.831Z,11.75
2022-09-26T14:13:21.971Z,11.94
2022-09-26T14:18:51.263Z,11.93
2022-09-26T14:24:27.401Z,11.85
2022-09-26T14:29:38.514Z,11.94
2022-09-26T14:34:47.018Z,11.94
2022-09-26T14:39:53.759Z,11.93
2022-09-26T14:44:59.948Z,11.92
2022-09-26T14:50:08.881Z,11.83
2022-09-26T14:55:18.366Z,11.72
2022-09-26T15:00:41.214Z,11.61
2022-09-26T15:05:49.368Z,11.40
2022-09-26T15:10:55.465Z,11.12
2022-09-26T15:16:16.176Z,10.89
2022-09-26T15:21:28.978Z,10.49
2022-09-26T15:26:36.934Z,10.27
2022-09-26T15:31:44.458Z,10.02
2022-09-26T15:36:57.651Z,9.86
2022-09-26T15:42:20.237Z,9.49
2022-09-26T15:47:41.195Z,9.49
2022-09-26T15:52:50.799Z,9.39
2022-09-26T15:57:57.364Z,9.40
2022-09-26T16:03:21.247Z,9.42
2022-09-26T16:08:30.424Z,9.53
2022-09-26T16:13:39.139Z,9.62
2022-09-26T16:18:48.247Z,9.77
2022-09-26T16:23:54.897Z,9.68
2022-09-26T16:29:00.265Z,9.53
2022-09-26T16:34:06.777Z,9.54
2022-09-26T16:39:22.171Z,9.59
2022-09-26T16:44:34.348Z,9.53
2022-09-26T16:49:46.841Z,9.58
2022-09-26T16:54:53.618Z,9.65
2022-09-26T17:00:16.323Z,9.57
2022-09-26T17:05:23.095Z,9.56
2022-09-26T17:10:29.352Z,9.54
2022-09-26T17:15:36.335Z,9.47
2022-09-26T17:20:42.900Z,9.43
2022-09-26T17:25:55.359Z,9.16
2022-09-26T17:31:07.705Z,8.94
2022-09-26T17:36:20.056Z,8.77
2022-09-26T17:41:26.143Z,8.87
2022-09-26T17:46:31.434Z,8.87
2022-09-26T17:51:37.051Z,8.85
2022-09-26T17:56:43.727Z,8.85
2022-09-26T18:01:51.006Z,8.66
2022-09-26T18:06:56.882Z,8.69
2022-09-26T18:12:04.451Z,8.66
2022-09-26T18:17:08.696Z,8.41
2022-09-26T18:22:17.163Z,8.27
2022-09-26T18:27:23.875Z,8.12
2022-09-26T18:32:31.847Z,8.13
2022-09-26T18:37:36.217Z,8.04
2022-09-26T18:42:41.906Z,8.03
2022-09-26T18:47:46.190Z,8.03
2022-09-26T18:52:50.161Z,7.86
2022-09-26T18:58:21.854Z,7.81
2022-09-26T19:03:29.193Z,7.70
2022-09-26T19:08:36.902Z,7.72
2022-09-26T19:13:42.514Z,7.62
2022-09-26T19:18:47.358Z,7.53
2022-09-26T19:23:51.109Z,7.60
2022-09-26T19:28:58.481Z,7.44
2022-09-26T19:34:03.536Z,7.43
2022-09-26T19:39:12.168Z,7.31
2022-09-26T19:44:17.270Z,7.41
2022-09-26T19:49:21.722Z,7.37
2022-09-26T19:54:25.193Z,7.34
2022-09-26T19:59:30.750Z,7.10
2022-09-26T20:04:34.972Z,6.95
2022-09-26T20:09:39.948Z,6.86
2022-09-26T20:14:44.817Z,6.90
2022-09-26T20:19:49.428Z,6.85
2022-09-26T20:24:55.011Z,6.78
2022-09-26T20:30:17.800Z,6.76
2022-09-26T20:35:22.006Z,6.66
2022-09-26T20:40:26.303Z,6.40
2022-09-26T20:45:35.484Z,6.26
2022-09-26T20:50:40.693Z,6.00
2022-09-26T20:55:44.846Z,5.88
2022-09-26T21:00:51.312Z,5.82
2022-09-26T21:05:55.646Z,5.86
